createdAt,value
2023-05-01T00:01:00.365Z,8.93
2023-05-01T00:03:30.040Z,6.80
2023-05-01T00:06:04.926Z,9.43
2023-05-01T00:08:33.529Z,22.90
2023-05-01T00:11:04.227Z,10.83
2023-05-01T00:13:34.561Z,11.57
2023-05-01T00:16:05.516Z,8.00
2023-05-01T00:18:35.582Z,10.73
2023-05-01T00:21:04.033Z,8.67
2023-05-01T00:23:32.367Z,11.50
2023-05-01T00:26:00.606Z,9.30
2023-05-01T00:28:28.668Z,10.63
2023-05-01T00:31:01.533Z,9.37
2023-05-01T00:33:29.717Z,7.57
2023-05-01T00:36:00.552Z,8.80
2023-05-01T00:38:28.668Z,9.90
2023-05-01T00:41:01.553Z,6.93
2023-05-01T00:43:29.732Z,9.37
2023-05-01T00:45:57.932Z,9.63
2023-05-01T00:48:27.558Z,7.30
2023-05-01T00:50:56.850Z,9.63
2023-05-01T00:53:29.565Z,9.77
2023-05-01T00:55:59.430Z,8.17
2023-05-01T00:58:27.879Z,9.03
2023-05-01T01:00:56.330Z,9.77
2023-05-01T01:03:25.589Z,11.73
2023-05-01T01:05:58.313Z,8.10
2023-05-01T01:08:35.566Z,11.23
2023-05-01T01:11:15.862Z,12.13
2023-05-01T01:13:53.830Z,9.03
2023-05-01T01:16:57.610Z,8.20
2023-05-01T01:20:15.159Z,9.30
2023-05-01T01:22:49.587Z,11.13
2023-05-01T01:25:45.587Z,9.27
2023-05-01T01:28:37.567Z,15.90
2023-05-01T01:31:18.775Z,14.03
2023-05-01T01:34:10.208Z,9.47
2023-05-01T01:36:48.586Z,9.53
2023-05-01T01:39:28.259Z,9.67
2023-05-01T01:42:00.597Z,10.63
2023-05-01T01:44:34.913Z,12.93
2023-05-01T01:47:08.606Z,16.33
2023-05-01T01:49:42.602Z,11.27
2023-05-01T01:52:15.395Z,12.40
2023-05-01T01:54:52.598Z,10.53
2023-05-01T01:57:22.693Z,10.67
2023-05-01T01:59:53.736Z,10.70
2023-05-01T02:02:23.436Z,9.83
2023-05-01T02:04:59.515Z,11.80
2023-05-01T02:07:30.691Z,10.13
2023-05-01T02:10:03.951Z,11.50
2023-05-01T02:12:38.699Z,10.40
2023-05-01T02:15:11.636Z,11.33
2023-05-01T02:17:45.563Z,10.87
2023-05-01T02:20:15.784Z,11.33
2023-05-01T02:22:47.618Z,10.47
2023-05-01T02:25:16.851Z,10.20
2023-05-01T02:27:49.639Z,12.97
2023-05-01T02:30:19.142Z,11.27
2023-05-01T02:32:47.583Z,10.17
2023-05-01T02:35:21.563Z,10.83
2023-05-01T02:37:50.603Z,11.97
2023-05-01T02:40:19.407Z,13.47
2023-05-01T02:42:50.861Z,11.67
2023-05-01T02:45:21.735Z,13.13
2023-05-01T02:47:57.814Z,9.87
2023-05-01T02:50:28.241Z,11.87
2023-05-01T02:52:57.369Z,13.23
2023-05-01T02:55:37.586Z,10.47
2023-05-01T02:58:05.801Z,9.97
2023-05-01T03:00:35.646Z,10.67
2023-05-01T03:03:03.861Z,11.00
2023-05-01T03:05:33.354Z,8.03
2023-05-01T03:08:01.599Z,10.77
2023-05-01T03:10:29.763Z,10.57
2023-05-01T03:13:00.627Z,11.37
2023-05-01T03:15:29.409Z,11.07
2023-05-01T03:17:57.630Z,9.27
2023-05-01T03:20:27.574Z,10.90
2023-05-01T03:22:58.218Z,10.97
2023-05-01T03:25:28.640Z,10.43
2023-05-01T03:27:57.635Z,9.10
2023-05-01T03:30:28.810Z,7.30
2023-05-01T03:32:58.674Z,10.57
2023-05-01T03:35:32.463Z,8.33
2023-05-01T03:38:02.208Z,10.40
2023-05-01T03:40:49.642Z,9.43
2023-05-01T03:43:36.255Z,7.57
2023-05-01T03:46:10.651Z,8.60
2023-05-01T03:48:39.029Z,11.47
2023-05-01T03:51:07.406Z,10.93
2023-05-01T03:53:39.665Z,9.53
2023-05-01T03:56:09.946Z,11.60
2023-05-01T03:58:39.618Z,9.87
2023-05-01T04:01:09.409Z,12.60
2023-05-01T04:03:43.066Z,11.70
2023-05-01T04:06:12.650Z,12.70
2023-05-01T04:08:42.651Z,9.50
2023-05-01T04:11:10.999Z,10.57
2023-05-01T04:13:39.097Z,15.00
2023-05-01T04:16:08.720Z,12.17
2023-05-01T04:18:37.647Z,11.87
2023-05-01T04:21:09.817Z,9.63
2023-05-01T04:23:42.641Z,9.10
2023-05-01T04:26:10.822Z,10.80
2023-05-01T04:28:43.660Z,11.70
2023-05-01T04:31:14.234Z,10.30
2023-05-01T04:33:42.698Z,12.47
2023-05-01T04:36:10.766Z,10.10
2023-05-01T04:38:38.976Z,11.70
2023-05-01T04:41:09.667Z,12.83
2023-05-01T04:43:38.680Z,10.37
2023-05-01T04:46:09.279Z,11.67
2023-05-01T04:48:38.004Z,10.07
2023-05-01T04:51:07.655Z,9.70
2023-05-01T04:53:37.660Z,10.63
2023-05-01T04:56:09.965Z,12.07
2023-05-01T04:58:39.672Z,8.93
2023-05-01T05:01:12.720Z,10.73
2023-05-01T05:03:45.985Z,10.07
2023-05-01T05:06:16.495Z,11.10
2023-05-01T05:08:48.009Z,10.90
2023-05-01T05:11:17.810Z,8.37
2023-05-01T05:14:01.711Z,11.37
2023-05-01T05:16:30.373Z,10.40
2023-05-01T05:18:58.836Z,7.87
2023-05-01T05:21:35.926Z,10.57
2023-05-01T05:24:05.202Z,9.97
2023-05-01T05:26:35.396Z,7.70
2023-05-01T05:29:05.199Z,9.10
2023-05-01T05:31:34.927Z,9.30
2023-05-01T05:34:03.795Z,10.23
2023-05-01T05:36:32.375Z,10.97
2023-05-01T05:39:01.698Z,11.30
2023-05-01T05:41:29.849Z,11.97
2023-05-01T05:44:03.685Z,8.60
2023-05-01T05:46:32.916Z,5.80
2023-05-01T05:49:01.692Z,5.57
2023-05-01T05:51:32.041Z,7.10
2023-05-01T05:54:01.521Z,6.33
2023-05-01T05:56:34.353Z,7.23
2023-05-01T05:59:04.714Z,6.57
2023-05-01T06:01:33.871Z,5.23
2023-05-01T06:04:02.299Z,4.83
2023-05-01T06:06:33.479Z,6.50
2023-05-01T06:09:02.034Z,5.23
2023-05-01T06:11:31.011Z,5.23
2023-05-01T06:14:00.324Z,4.67
2023-05-01T06:16:34.275Z,6.23
2023-05-01T06:19:03.164Z,4.97
2023-05-01T06:21:32.860Z,5.30
2023-05-01T06:24:02.540Z,6.23
2023-05-01T06:26:38.867Z,6.60
2023-05-01T06:29:07.044Z,4.80
2023-05-01T06:31:37.172Z,5.67
2023-05-01T06:34:09.274Z,4.53
2023-05-01T06:36:49.593Z,3.57
2023-05-01T06:39:17.890Z,4.93
2023-05-01T06:41:47.673Z,4.83
2023-05-01T06:44:17.049Z,4.33
2023-05-01T06:46:46.911Z,5.00
2023-05-01T06:49:15.064Z,2.43
2023-05-01T06:51:46.674Z,5.20
2023-05-01T06:54:15.139Z,3.43
2023-05-01T06:56:43.236Z,8.50
2023-05-01T06:59:11.590Z,5.93
2023-05-01T07:01:39.801Z,4.47
2023-05-01T07:04:09.333Z,4.20
2023-05-01T07:06:37.689Z,8.47
2023-05-01T07:09:08.450Z,4.97
2023-05-01T07:11:37.706Z,3.83
2023-05-01T07:14:05.794Z,4.10
2023-05-01T07:16:34.228Z,7.07
2023-05-01T07:19:02.385Z,4.93
2023-05-01T07:21:36.874Z,4.10
2023-05-01T07:24:05.928Z,3.27
2023-05-01T07:26:34.087Z,7.27
2023-05-01T07:29:02.187Z,3.63
2023-05-01T07:31:30.396Z,4.23
2023-05-01T07:33:58.484Z,5.87
2023-05-01T07:36:34.771Z,7.47
2023-05-01T07:39:02.964Z,7.83
2023-05-01T07:41:32.725Z,6.40
2023-05-01T07:44:00.970Z,5.43
2023-05-01T07:46:35.294Z,4.70
2023-05-01T07:49:04.312Z,5.23
2023-05-01T07:51:33.911Z,6.43
2023-05-01T07:54:04.594Z,3.50
2023-05-01T07:56:33.320Z,4.80
2023-05-01T07:59:01.938Z,5.97
2023-05-01T08:01:30.203Z,5.00
2023-05-01T08:03:58.449Z,6.30
2023-05-01T08:06:27.991Z,6.17
2023-05-01T08:08:57.449Z,4.90
2023-05-01T08:11:29.965Z,4.63
2023-05-01T08:13:58.165Z,4.73
2023-05-01T08:16:26.837Z,3.87
2023-05-01T08:18:55.090Z,7.53
2023-05-01T08:21:23.179Z,5.40
2023-05-01T08:23:52.012Z,4.53
2023-05-01T08:26:22.668Z,8.02
2023-05-01T08:28:51.088Z,5.93
2023-05-01T08:31:21.290Z,5.03
2023-05-01T08:33:49.430Z,5.67
2023-05-01T08:36:20.686Z,5.27
2023-05-01T08:38:51.245Z,5.37
2023-05-01T08:41:23.011Z,3.40
2023-05-01T08:43:51.666Z,5.37
2023-05-01T08:46:26.977Z,4.37
2023-05-01T08:48:59.090Z,7.17
2023-05-01T08:51:27.660Z,4.67
2023-05-01T08:53:58.423Z,6.07
2023-05-01T08:56:31.769Z,5.03
2023-05-01T08:59:01.969Z,6.70
2023-05-01T09:01:32.924Z,5.70
2023-05-01T09:04:04.119Z,8.17
2023-05-01T09:06:33.185Z,5.70
2023-05-01T09:09:01.574Z,6.40
2023-05-01T09:11:31.645Z,9.10
2023-05-01T09:14:01.693Z,5.27
2023-05-01T09:16:30.983Z,6.97
2023-05-01T09:18:59.950Z,5.00
2023-05-01T09:21:31.864Z,6.23
2023-05-01T09:24:07.801Z,5.87
2023-05-01T09:26:41.920Z,5.77
2023-05-01T09:29:13.326Z,5.17
2023-05-01T09:31:41.459Z,5.07
2023-05-01T09:34:09.613Z,4.47
2023-05-01T09:36:38.228Z,5.43
2023-05-01T09:39:06.358Z,4.83
2023-05-01T09:41:34.487Z,3.03
2023-05-01T09:44:05.797Z,4.57
2023-05-01T09:46:43.767Z,5.17
2023-05-01T09:49:12.001Z,6.33
2023-05-01T09:51:40.066Z,4.63
2023-05-01T09:54:19.791Z,6.10
2023-05-01T09:56:49.809Z,4.57
2023-05-01T09:59:20.606Z,4.10
2023-05-01T10:01:50.962Z,3.30
2023-05-01T10:04:30.337Z,5.43
2023-05-01T10:06:59.852Z,3.83
2023-05-01T10:09:33.853Z,4.50
2023-05-01T10:12:02.028Z,6.07
2023-05-01T10:14:33.941Z,4.63
2023-05-01T10:17:02.636Z,5.80
2023-05-01T10:19:32.843Z,5.33
2023-05-01T10:22:03.414Z,5.07
2023-05-01T10:24:32.576Z,7.17
2023-05-01T10:27:01.494Z,8.00
2023-05-01T10:29:32.918Z,5.20
2023-05-01T10:32:03.682Z,3.20
2023-05-01T10:34:35.611Z,4.10
2023-05-01T10:37:10.800Z,4.03
2023-05-01T10:39:40.240Z,3.43
2023-05-01T10:42:11.466Z,4.27
2023-05-01T10:44:45.183Z,2.60
2023-05-01T10:47:48.635Z,5.23
2023-05-01T10:50:17.469Z,5.27
2023-05-01T10:53:18.303Z,5.30
2023-05-01T10:55:47.762Z,8.97
2023-05-01T10:58:51.632Z,5.23
2023-05-01T11:01:39.863Z,5.50
2023-05-01T11:04:09.524Z,4.20
2023-05-01T11:06:39.123Z,6.50
2023-05-01T11:09:41.540Z,3.50
2023-05-01T11:12:11.098Z,3.83
2023-05-01T11:15:05.952Z,2.33
2023-05-01T11:17:49.891Z,3.80
2023-05-01T11:20:47.832Z,4.43
2023-05-01T11:23:23.604Z,2.90
2023-05-01T11:26:01.978Z,2.17
2023-05-01T11:28:33.839Z,3.97
2023-05-01T11:31:02.587Z,3.27
2023-05-01T11:33:32.581Z,2.53
2023-05-01T11:36:04.933Z,10.00
2023-05-01T11:38:33.100Z,4.93
2023-05-01T11:41:04.178Z,4.27
2023-05-01T11:43:32.968Z,7.10
2023-05-01T11:46:04.455Z,10.50
2023-05-01T11:48:34.055Z,6.90
2023-05-01T11:51:02.194Z,9.27
2023-05-01T11:53:30.733Z,3.90
2023-05-01T11:55:59.571Z,3.43
2023-05-01T11:58:36.379Z,3.90
2023-05-01T12:01:07.351Z,4.97
2023-05-01T12:03:45.981Z,4.50
2023-05-01T12:06:14.988Z,2.65
2023-05-01T12:08:48.378Z,5.50
2023-05-01T12:11:18.258Z,3.10
2023-05-01T12:13:47.887Z,4.35
2023-05-01T12:16:16.024Z,3.47
2023-05-01T12:18:45.872Z,3.47
2023-05-01T12:21:18.880Z,5.47
2023-05-01T12:23:47.291Z,4.93
2023-05-01T12:26:22.029Z,3.03
2023-05-01T12:28:58.504Z,2.53
2023-05-01T12:31:28.083Z,5.03
2023-05-01T12:34:01.948Z,4.22
2023-05-01T12:36:40.530Z,2.55
2023-05-01T12:39:10.111Z,2.05
2023-05-01T12:41:40.201Z,4.03
2023-05-01T12:44:20.088Z,4.40
2023-05-01T12:46:57.363Z,3.65
2023-05-01T12:49:28.041Z,3.42
2023-05-01T12:51:57.469Z,3.28
2023-05-01T12:54:28.573Z,2.92
2023-05-01T12:57:07.964Z,3.95
2023-05-01T12:59:43.493Z,5.97
2023-05-01T13:02:15.033Z,3.28
2023-05-01T13:04:48.052Z,5.07
2023-05-01T13:07:18.729Z,5.13
2023-05-01T13:09:56.544Z,3.33
2023-05-01T13:12:26.298Z,2.42
2023-05-01T13:14:55.223Z,2.33
2023-05-01T13:17:25.648Z,3.95
2023-05-01T13:19:59.789Z,3.75
2023-05-01T13:22:33.594Z,2.15
2023-05-01T13:25:03.866Z,2.55
2023-05-01T13:27:35.652Z,4.50
2023-05-01T13:30:03.881Z,3.97
2023-05-01T13:32:33.316Z,3.83
2023-05-01T13:35:03.576Z,3.97
2023-05-01T13:37:32.500Z,4.03
2023-05-01T13:40:00.914Z,1.83
2023-05-01T13:42:29.476Z,3.33
2023-05-01T13:44:58.778Z,2.65
2023-05-01T13:47:28.262Z,3.78
2023-05-01T13:49:56.816Z,3.53
2023-05-01T13:52:26.443Z,2.17
2023-05-01T13:54:58.205Z,3.20
2023-05-01T13:57:26.735Z,3.50
2023-05-01T13:59:55.399Z,2.10
2023-05-01T14:02:27.835Z,2.63
2023-05-01T14:05:00.119Z,2.38
2023-05-01T14:07:30.295Z,2.97
2023-05-01T14:10:00.445Z,4.18
2023-05-01T14:12:31.014Z,2.47
2023-05-01T14:15:01.442Z,5.15
2023-05-01T14:17:34.677Z,3.05
2023-05-01T14:20:04.948Z,2.58
2023-05-01T14:22:44.346Z,3.38
2023-05-01T14:25:29.955Z,4.45
2023-05-01T14:27:59.384Z,4.10
2023-05-01T14:30:36.111Z,2.53
2023-05-01T14:33:06.020Z,2.00
2023-05-01T14:35:35.145Z,4.72
2023-05-01T14:38:10.974Z,2.10
2023-05-01T14:40:41.796Z,3.13
2023-05-01T14:43:17.986Z,5.30
2023-05-01T14:45:49.146Z,3.88
2023-05-01T14:48:24.066Z,3.95
2023-05-01T14:50:52.362Z,2.33
2023-05-01T14:53:23.203Z,3.90
2023-05-01T14:55:52.716Z,3.28
2023-05-01T14:58:20.912Z,4.15
2023-05-01T15:00:49.910Z,4.30
2023-05-01T15:03:18.883Z,2.97
2023-05-01T15:05:48.514Z,3.55
2023-05-01T15:08:16.735Z,2.75
2023-05-01T15:10:49.575Z,3.50
2023-05-01T15:13:18.021Z,4.38
2023-05-01T15:15:46.129Z,5.38
2023-05-01T15:18:18.530Z,3.55
2023-05-01T15:20:47.004Z,2.38
2023-05-01T15:23:15.172Z,3.50
2023-05-01T15:25:46.083Z,4.53
2023-05-01T15:28:16.126Z,5.00
2023-05-01T15:30:47.176Z,4.38
2023-05-01T15:33:18.793Z,4.20
2023-05-01T15:35:48.800Z,2.55
2023-05-01T15:38:22.097Z,2.90
2023-05-01T15:40:51.238Z,5.65
2023-05-01T15:43:22.036Z,3.85
2023-05-01T15:45:51.288Z,4.05
2023-05-01T15:48:20.308Z,7.70
2023-05-01T15:50:49.319Z,2.63
2023-05-01T15:53:18.005Z,3.25
2023-05-01T15:55:47.077Z,4.18
2023-05-01T15:58:17.045Z,2.47
2023-05-01T16:00:50.194Z,3.85
2023-05-01T16:03:18.743Z,2.80
2023-05-01T16:08:40.289Z,3.35
2023-05-01T16:11:11.143Z,3.10
2023-05-01T16:13:39.930Z,3.17
2023-05-01T16:16:12.339Z,6.05
2023-05-01T16:18:42.572Z,4.03
2023-05-01T16:21:11.369Z,3.20
2023-05-01T16:23:44.051Z,2.00
2023-05-01T16:26:12.184Z,3.38
2023-05-01T16:28:41.070Z,2.92
2023-05-01T16:31:23.576Z,4.93
2023-05-01T16:33:57.054Z,2.85
2023-05-01T16:36:25.155Z,3.38
2023-05-01T16:38:56.549Z,4.68
2023-05-01T16:41:25.039Z,3.10
2023-05-01T16:43:54.088Z,4.88
2023-05-01T16:46:23.548Z,2.90
2023-05-01T16:48:51.793Z,3.03
2023-05-01T16:51:26.473Z,2.40
2023-05-01T16:53:54.602Z,4.18
2023-05-01T16:56:23.317Z,4.28
2023-05-01T16:58:51.379Z,6.55
2023-05-01T17:01:19.634Z,11.07
2023-05-01T17:03:50.262Z,12.70
2023-05-01T17:06:21.513Z,6.00
2023-05-01T17:08:49.611Z,8.38
2023-05-01T17:11:19.013Z,6.07
2023-05-01T17:13:47.217Z,3.75
2023-05-01T17:16:15.271Z,4.32
2023-05-01T17:18:44.690Z,4.57
2023-05-01T17:21:14.186Z,4.47
2023-05-01T17:23:42.271Z,3.55
2023-05-01T17:26:15.906Z,2.78
2023-05-01T17:28:45.313Z,4.38
2023-05-01T17:31:14.819Z,4.53
2023-05-01T17:33:44.201Z,3.45
2023-05-01T17:36:13.686Z,5.93
2023-05-01T17:38:41.834Z,4.07
2023-05-01T17:41:09.886Z,4.15
2023-05-01T17:43:41.781Z,4.05
2023-05-01T17:46:09.898Z,5.43
2023-05-01T17:48:38.021Z,4.65
2023-05-01T17:51:08.916Z,4.33
2023-05-01T17:53:42.409Z,6.30
2023-05-01T17:56:10.620Z,3.45
2023-05-01T17:58:38.970Z,4.00
2023-05-01T18:01:09.373Z,4.68
2023-05-01T18:03:37.723Z,6.40
2023-05-01T18:06:06.116Z,7.00
2023-05-01T18:08:38.575Z,7.47
2023-05-01T18:11:07.019Z,4.17
2023-05-01T18:13:38.299Z,4.67
2023-05-01T18:16:06.810Z,4.47
2023-05-01T18:18:38.388Z,14.87
2023-05-01T18:21:06.577Z,5.17
2023-05-01T18:23:36.761Z,6.40
2023-05-01T18:26:08.807Z,8.20
2023-05-01T18:28:37.148Z,8.73
2023-05-01T18:31:05.310Z,8.30
2023-05-01T18:33:34.186Z,6.20
2023-05-01T18:36:03.189Z,9.07
2023-05-01T18:38:31.278Z,3.43
2023-05-01T18:40:59.327Z,4.47
2023-05-01T18:43:29.029Z,4.53
2023-05-01T18:45:57.893Z,5.37
2023-05-01T18:48:26.193Z,5.93
2023-05-01T18:51:01.253Z,4.20
2023-05-01T18:53:35.771Z,5.13
2023-05-01T18:56:03.979Z,5.20
2023-05-01T18:58:33.391Z,7.83
2023-05-01T19:01:01.581Z,4.40
2023-05-01T19:03:29.726Z,7.17
2023-05-01T19:05:58.011Z,6.60
2023-05-01T19:08:26.144Z,6.57
2023-05-01T19:10:54.234Z,6.10
2023-05-01T19:13:22.344Z,4.23
2023-05-01T19:15:51.792Z,4.97
2023-05-01T19:18:20.100Z,4.10
2023-05-01T19:20:48.272Z,5.60
2023-05-01T19:23:16.429Z,7.53
2023-05-01T19:25:44.534Z,3.73
2023-05-01T19:28:13.546Z,5.97
2023-05-01T19:30:44.846Z,8.63
2023-05-01T19:33:15.210Z,4.80
2023-05-01T19:35:45.475Z,7.97
2023-05-01T19:38:13.576Z,7.40
2023-05-01T19:40:44.892Z,12.80
2023-05-01T19:43:14.301Z,7.00
2023-05-01T19:45:43.075Z,8.23
2023-05-01T19:48:11.610Z,5.93
2023-05-01T19:50:42.740Z,7.63
2023-05-01T19:53:14.426Z,7.40
2023-05-01T19:55:42.593Z,6.57
2023-05-01T19:58:12.955Z,9.13
2023-05-01T20:00:41.085Z,6.50
2023-05-01T20:03:10.887Z,6.43
2023-05-01T20:05:43.236Z,8.80
2023-05-01T20:08:12.791Z,10.43
2023-05-01T20:10:41.080Z,10.10
2023-05-01T20:13:10.946Z,9.57
2023-05-01T20:15:39.608Z,9.77
2023-05-01T20:18:10.384Z,8.20
2023-05-01T20:20:39.981Z,8.00
2023-05-01T20:23:11.264Z,11.13
2023-05-01T20:25:39.585Z,10.37
2023-05-01T20:28:08.918Z,9.90
2023-05-01T20:30:39.404Z,11.40
2023-05-01T20:33:08.088Z,11.37
2023-05-01T20:35:36.347Z,8.33
2023-05-01T20:38:07.215Z,7.60
2023-05-01T20:40:37.294Z,11.83
2023-05-01T20:43:05.641Z,8.60
2023-05-01T20:45:34.259Z,7.63
2023-05-01T20:48:02.932Z,9.53
2023-05-01T20:50:33.446Z,5.70
2023-05-01T20:53:01.556Z,8.63
2023-05-01T20:55:31.042Z,10.77
2023-05-01T20:58:02.247Z,8.07
2023-05-01T21:00:30.337Z,6.23
2023-05-01T21:03:01.620Z,7.73
2023-05-01T21:05:30.231Z,7.30
2023-05-01T21:08:02.311Z,6.03
2023-05-01T21:10:31.844Z,6.77
2023-05-01T21:13:01.227Z,7.23
2023-05-01T21:15:31.204Z,7.43
2023-05-01T21:18:00.150Z,7.87
2023-05-01T21:20:33.225Z,6.47
2023-05-01T21:23:04.580Z,10.33
2023-05-01T21:25:38.279Z,7.67
2023-05-01T21:28:06.997Z,6.83
2023-05-01T21:30:36.616Z,6.73
2023-05-01T21:33:07.155Z,9.37
2023-05-01T21:35:35.645Z,9.63
2023-05-01T21:38:05.396Z,11.00
2023-05-01T21:40:37.896Z,9.17
2023-05-01T21:43:08.254Z,7.47
2023-05-01T21:45:40.441Z,8.97
2023-05-01T21:48:10.285Z,7.87
2023-05-01T21:50:41.545Z,9.20
2023-05-01T21:53:09.905Z,10.27
2023-05-01T21:55:42.457Z,7.00
2023-05-01T21:58:10.810Z,8.90
2023-05-01T22:00:41.580Z,9.27
2023-05-01T22:03:11.327Z,8.20
2023-05-01T22:05:41.081Z,6.67
2023-05-01T22:08:12.725Z,7.00
2023-05-01T22:10:43.040Z,6.90
2023-05-01T22:13:11.578Z,8.00
2023-05-01T22:15:39.702Z,8.83
2023-05-01T22:18:08.422Z,9.57
2023-05-01T22:20:38.601Z,6.47
2023-05-01T22:23:07.547Z,9.60
2023-05-01T22:25:36.251Z,9.57
2023-05-01T22:28:06.110Z,11.50
2023-05-01T22:30:36.262Z,8.27
2023-05-01T22:33:04.585Z,7.57
2023-05-01T22:35:32.752Z,7.57
2023-05-01T22:38:01.307Z,8.33
2023-05-01T22:40:29.414Z,8.77
2023-05-01T22:43:00.650Z,7.97
2023-05-01T22:45:34.399Z,9.70
2023-05-01T22:48:02.487Z,8.53
2023-05-01T22:50:31.276Z,9.67
2023-05-01T22:53:01.351Z,13.63
2023-05-01T22:55:29.717Z,6.83
2023-05-01T22:57:58.262Z,8.40
2023-05-01T23:00:31.014Z,7.20
2023-05-01T23:03:01.806Z,9.83
2023-05-01T23:05:31.074Z,9.10
2023-05-01T23:07:59.352Z,8.73
2023-05-01T23:10:28.637Z,8.97
2023-05-01T23:12:57.357Z,8.50
2023-05-01T23:15:27.263Z,6.60
2023-05-01T23:17:57.697Z,10.53
2023-05-01T23:20:27.300Z,9.53
2023-05-01T23:22:55.376Z,10.73
2023-05-01T23:25:26.640Z,10.60
2023-05-01T23:27:56.315Z,6.93
2023-05-01T23:30:25.387Z,10.70
2023-05-01T23:32:54.333Z,11.27
2023-05-01T23:35:24.721Z,11.27
2023-05-01T23:37:54.320Z,8.30
2023-05-01T23:40:22.405Z,12.43
2023-05-01T23:42:53.346Z,8.80
2023-05-01T23:45:21.641Z,9.20
2023-05-01T23:47:50.328Z,8.43
2023-05-01T23:50:21.377Z,10.60
2023-05-01T23:52:52.297Z,8.30
2023-05-01T23:55:20.354Z,8.77
2023-05-01T23:57:48.526Z,7.33
